sensor_id;sensor_type;location;lat;lon;timestamp;temperature;humidity
23869;DHT22;12115;47.128;15.422;2023-04-25T00:02:28;9.80;99.90
23869;DHT22;12115;47.128;15.422;2023-04-25T00:04:56;9.80;99.90
23869;DHT22;12115;47.128;15.422;2023-04-25T00:07:25;9.70;99.90
23869;DHT22;12115;47.128;15.422;2023-04-25T00:09:53;9.70;99.90
23869;DHT22;12115;47.128;15.422;2023-04-25T00:12:21;9.70;99.90
23869;DHT22;12115;47.128;15.422;2023-04-25T00:14:49;9.70;99.90
23869;DHT22;12115;47.128;15.422;2023-04-25T00:17:18;9.60;99.90
23869;DHT22;12115;47.128;15.422;2023-04-25T00:19:46;9.70;99.90
23869;DHT22;12115;47.128;15.422;2023-04-25T00:22:14;9.70;99.90
23869;DHT22;12115;47.128;15.422;2023-04-25T00:24:41;9.70;99.90
23869;DHT22;12115;47.128;15.422;2023-04-25T00:27:09;9.70;99.90
23869;DHT22;12115;47.128;15.422;2023-04-25T00:29:36;9.70;99.90
23869;DHT22;12115;47.128;15.422;2023-04-25T00:32:03;9.70;99.90
23869;DHT22;12115;47.128;15.422;2023-04-25T00:34:37;9.60;99.90
23869;DHT22;12115;47.128;15.422;2023-04-25T00:37:04;9.60;99.90
23869;DHT22;12115;47.128;15.422;2023-04-25T00:39:33;9.50;99.90
23869;DHT22;12115;47.128;15.422;2023-04-25T00:42:00;9.50;99.90
23869;DHT22;12115;47.128;15.422;2023-04-25T00:44:32;9.50;99.90
23869;DHT22;12115;47.128;15.422;2023-04-25T00:47:01;9.50;99.90
23869;DHT22;12115;47.128;15.422;2023-04-25T00:49:29;9.50;99.90
23869;DHT22;12115;47.128;15.422;2023-04-25T00:51:56;9.50;99.90
23869;DHT22;12115;47.128;15.422;2023-04-25T00:54:24;9.50;99.90
23869;DHT22;12115;47.128;15.422;2023-04-25T00:57:34;9.40;99.90
23869;DHT22;12115;47.128;15.422;2023-04-25T01:00:03;9.40;99.90
23869;DHT22;12115;47.128;15.422;2023-04-25T01:02:33;9.40;99.90
23869;DHT22;12115;47.128;15.422;2023-04-25T01:05:02;9.30;99.90
23869;DHT22;12115;47.128;15.422;2023-04-25T01:07:30;9.30;99.90
23869;DHT22;12115;47.128;15.422;2023-04-25T01:09:58;9.30;99.90
23869;DHT22;12115;47.128;15.422;2023-04-25T01:12:31;9.30;99.90
23869;DHT22;12115;47.128;15.422;2023-04-25T01:14:58;9.20;99.90
23869;DHT22;12115;47.128;15.422;2023-04-25T01:17:26;9.20;99.90
23869;DHT22;12115;47.128;15.422;2023-04-25T01:19:54;9.20;99.90
23869;DHT22;12115;47.128;15.422;2023-04-25T01:22:22;9.10;99.90
23869;DHT22;12115;47.128;15.422;2023-04-25T01:24:50;9.10;99.90
23869;DHT22;12115;47.128;15.422;2023-04-25T01:27:18;9.00;99.90
23869;DHT22;12115;47.128;15.422;2023-04-25T01:29:46;9.00;99.90
23869;DHT22;12115;47.128;15.422;2023-04-25T01:32:14;8.90;99.90
23869;DHT22;12115;47.128;15.422;2023-04-25T01:34:54;9.00;99.90
23869;DHT22;12115;47.128;15.422;2023-04-25T01:37:21;8.90;99.90
23869;DHT22;12115;47.128;15.422;2023-04-25T01:39:49;8.90;99.90
23869;DHT22;12115;47.128;15.422;2023-04-25T01:42:17;8.90;99.90
23869;DHT22;12115;47.128;15.422;2023-04-25T01:44:44;8.80;99.90
23869;DHT22;12115;47.128;15.422;2023-04-25T01:47:12;8.80;99.90
23869;DHT22;12115;47.128;15.422;2023-04-25T01:49:39;8.80;99.90
23869;DHT22;12115;47.128;15.422;2023-04-25T01:52:07;8.60;99.90
23869;DHT22;12115;47.128;15.422;2023-04-25T01:54:35;8.60;99.90
23869;DHT22;12115;47.128;15.422;2023-04-25T01:57:02;8.60;99.90
23869;DHT22;12115;47.128;15.422;2023-04-25T01:59:32;8.50;99.90
23869;DHT22;12115;47.128;15.422;2023-04-25T02:02:35;8.50;99.90
23869;DHT22;12115;47.128;15.422;2023-04-25T02:05:05;8.40;99.90
23869;DHT22;12115;47.128;15.422;2023-04-25T02:07:36;8.40;99.90
23869;DHT22;12115;47.128;15.422;2023-04-25T02:10:04;8.40;99.90
23869;DHT22;12115;47.128;15.422;2023-04-25T02:12:36;8.40;99.90
23869;DHT22;12115;47.128;15.422;2023-04-25T02:15:21;8.40;99.90
23869;DHT22;12115;47.128;15.422;2023-04-25T02:17:56;8.40;99.90
23869;DHT22;12115;47.128;15.422;2023-04-25T02:20:50;8.40;99.90
23869;DHT22;12115;47.128;15.422;2023-04-25T02:23:17;8.40;99.90
23869;DHT22;12115;47.128;15.422;2023-04-25T02:25:46;8.30;99.90
23869;DHT22;12115;47.128;15.422;2023-04-25T02:28:13;8.30;99.90
23869;DHT22;12115;47.128;15.422;2023-04-25T02:30:42;8.10;99.90
23869;DHT22;12115;47.128;15.422;2023-04-25T02:33:09;8.10;99.90
23869;DHT22;12115;47.128;15.422;2023-04-25T02:35:37;8.00;99.90
23869;DHT22;12115;47.128;15.422;2023-04-25T02:38:04;7.90;99.90
23869;DHT22;12115;47.128;15.422;2023-04-25T02:40:32;8.00;99.90
23869;DHT22;12115;47.128;15.422;2023-04-25T02:42:59;7.90;99.90
23869;DHT22;12115;47.128;15.422;2023-04-25T02:45:27;7.80;99.90
23869;DHT22;12115;47.128;15.422;2023-04-25T02:47:55;7.80;99.90
23869;DHT22;12115;47.128;15.422;2023-04-25T02:50:22;7.70;99.90
23869;DHT22;12115;47.128;15.422;2023-04-25T02:52:50;7.70;99.90
23869;DHT22;12115;47.128;15.422;2023-04-25T02:55:23;7.70;99.90
23869;DHT22;12115;47.128;15.422;2023-04-25T02:57:54;7.60;99.90
23869;DHT22;12115;47.128;15.422;2023-04-25T03:00:36;7.60;99.90
23869;DHT22;12115;47.128;15.422;2023-04-25T03:03:03;7.60;99.90
23869;DHT22;12115;47.128;15.422;2023-04-25T03:05:31;7.50;99.90
23869;DHT22;12115;47.128;15.422;2023-04-25T03:07:58;7.40;99.90
23869;DHT22;12115;47.128;15.422;2023-04-25T03:10:26;7.40;99.90
23869;DHT22;12115;47.128;15.422;2023-04-25T03:13:01;7.30;99.90
23869;DHT22;12115;47.128;15.422;2023-04-25T03:15:29;7.30;99.90
23869;DHT22;12115;47.128;15.422;2023-04-25T03:17:56;7.20;99.90
23869;DHT22;12115;47.128;15.422;2023-04-25T03:20:24;7.10;99.90
23869;DHT22;12115;47.128;15.422;2023-04-25T03:22:51;7.10;99.90
23869;DHT22;12115;47.128;15.422;2023-04-25T03:25:19;6.90;99.90
23869;DHT22;12115;47.128;15.422;2023-04-25T03:27:46;6.80;99.90
23869;DHT22;12115;47.128;15.422;2023-04-25T03:30:13;6.80;99.90
23869;DHT22;12115;47.128;15.422;2023-04-25T03:32:42;6.80;99.90
23869;DHT22;12115;47.128;15.422;2023-04-25T03:35:13;6.80;99.90
23869;DHT22;12115;47.128;15.422;2023-04-25T03:37:40;6.80;99.90
23869;DHT22;12115;47.128;15.422;2023-04-25T03:40:08;6.80;99.90
23869;DHT22;12115;47.128;15.422;2023-04-25T03:43:05;6.70;99.90
23869;DHT22;12115;47.128;15.422;2023-04-25T03:45:33;6.60;99.90
23869;DHT22;12115;47.128;15.422;2023-04-25T03:48:00;6.60;99.90
23869;DHT22;12115;47.128;15.422;2023-04-25T03:50:38;6.60;99.90
23869;DHT22;12115;47.128;15.422;2023-04-25T03:53:06;6.40;99.90
23869;DHT22;12115;47.128;15.422;2023-04-25T03:55:53;6.40;99.90
23869;DHT22;12115;47.128;15.422;2023-04-25T03:58:23;6.40;99.90
23869;DHT22;12115;47.128;15.422;2023-04-25T04:00:57;6.30;99.90
23869;DHT22;12115;47.128;15.422;2023-04-25T04:03:24;6.20;99.90
23869;DHT22;12115;47.128;15.422;2023-04-25T04:05:52;6.20;99.90
23869;DHT22;12115;47.128;15.422;2023-04-25T04:08:20;6.20;99.90
23869;DHT22;12115;47.128;15.422;2023-04-25T04:14:21;6.20;99.90
23869;DHT22;12115;47.128;15.422;2023-04-25T04:16:51;6.10;99.90
23869;DHT22;12115;47.128;15.422;2023-04-25T04:19:18;6.10;99.90
23869;DHT22;12115;47.128;15.422;2023-04-25T04:22:06;6.10;99.90
23869;DHT22;12115;47.128;15.422;2023-04-25T04:24:37;6.00;99.90
23869;DHT22;12115;47.128;15.422;2023-04-25T04:27:06;6.00;99.90
23869;DHT22;12115;47.128;15.422;2023-04-25T04:29:52;5.90;99.90
23869;DHT22;12115;47.128;15.422;2023-04-25T04:32:37;5.90;99.90
23869;DHT22;12115;47.128;15.422;2023-04-25T04:35:05;5.90;99.90
23869;DHT22;12115;47.128;15.422;2023-04-25T04:37:33;5.80;99.90
23869;DHT22;12115;47.128;15.422;2023-04-25T04:40:02;5.80;99.90
23869;DHT22;12115;47.128;15.422;2023-04-25T04:43:04;5.80;99.90
23869;DHT22;12115;47.128;15.422;2023-04-25T04:45:55;5.80;99.90
23869;DHT22;12115;47.128;15.422;2023-04-25T04:48:58;5.70;99.90
23869;DHT22;12115;47.128;15.422;2023-04-25T04:51:44;5.80;99.90
23869;DHT22;12115;47.128;15.422;2023-04-25T04:54:30;5.80;99.90
23869;DHT22;12115;47.128;15.422;2023-04-25T04:57:11;5.80;99.90
23869;DHT22;12115;47.128;15.422;2023-04-25T04:59:59;5.80;99.90
23869;DHT22;12115;47.128;15.422;2023-04-25T05:02:56;5.80;99.90
23869;DHT22;12115;47.128;15.422;2023-04-25T05:05:46;5.80;99.90
23869;DHT22;12115;47.128;15.422;2023-04-25T05:08:36;5.80;99.90
23869;DHT22;12115;47.128;15.422;2023-04-25T05:11:09;5.90;99.90
23869;DHT22;12115;47.128;15.422;2023-04-25T05:13:56;5.90;99.90
23869;DHT22;12115;47.128;15.422;2023-04-25T05:16:42;6.00;99.90
23869;DHT22;12115;47.128;15.422;2023-04-25T05:19:19;6.00;99.90
23869;DHT22;12115;47.128;15.422;2023-04-25T05:21:52;6.00;99.90
23869;DHT22;12115;47.128;15.422;2023-04-25T05:24:42;6.10;99.90
23869;DHT22;12115;47.128;15.422;2023-04-25T05:27:23;6.10;99.90
23869;DHT22;12115;47.128;15.422;2023-04-25T05:30:09;6.20;99.90
23869;DHT22;12115;47.128;15.422;2023-04-25T05:32:54;6.30;99.90
23869;DHT22;12115;47.128;15.422;2023-04-25T05:35:22;6.30;99.90
23869;DHT22;12115;47.128;15.422;2023-04-25T05:37:50;6.40;99.90
23869;DHT22;12115;47.128;15.422;2023-04-25T05:40:19;6.40;99.90
23869;DHT22;12115;47.128;15.422;2023-04-25T05:42:56;6.50;99.90
23869;DHT22;12115;47.128;15.422;2023-04-25T05:45:26;6.60;99.90
23869;DHT22;12115;47.128;15.422;2023-04-25T05:48:07;6.60;99.90
23869;DHT22;12115;47.128;15.422;2023-04-25T05:51:00;6.70;99.90
23869;DHT22;12115;47.128;15.422;2023-04-25T05:54:00;6.80;99.90
23869;DHT22;12115;47.128;15.422;2023-04-25T05:56:27;6.90;99.90
23869;DHT22;12115;47.128;15.422;2023-04-25T05:58:55;6.90;99.90
23869;DHT22;12115;47.128;15.422;2023-04-25T06:01:22;7.00;99.90
23869;DHT22;12115;47.128;15.422;2023-04-25T06:03:50;7.00;99.90
23869;DHT22;12115;47.128;15.422;2023-04-25T06:06:19;7.10;99.90
23869;DHT22;12115;47.128;15.422;2023-04-25T06:08:46;7.20;99.90
23869;DHT22;12115;47.128;15.422;2023-04-25T06:11:13;7.30;99.90
23869;DHT22;12115;47.128;15.422;2023-04-25T06:13:40;7.30;99.90
23869;DHT22;12115;47.128;15.422;2023-04-25T06:16:07;7.50;99.90
23869;DHT22;12115;47.128;15.422;2023-04-25T06:18:35;7.60;99.90
23869;DHT22;12115;47.128;15.422;2023-04-25T06:21:02;7.60;99.90
23869;DHT22;12115;47.128;15.422;2023-04-25T06:23:29;7.70;99.90
23869;DHT22;12115;47.128;15.422;2023-04-25T06:26:01;7.80;99.90
23869;DHT22;12115;47.128;15.422;2023-04-25T06:28:29;7.90;99.90
23869;DHT22;12115;47.128;15.422;2023-04-25T06:30:56;7.90;99.90
23869;DHT22;12115;47.128;15.422;2023-04-25T06:33:23;8.00;99.90
23869;DHT22;12115;47.128;15.422;2023-04-25T06:35:51;8.10;99.90
23869;DHT22;12115;47.128;15.422;2023-04-25T06:38:23;8.20;99.90
23869;DHT22;12115;47.128;15.422;2023-04-25T06:40:51;8.20;99.90
23869;DHT22;12115;47.128;15.422;2023-04-25T06:43:18;8.30;99.90
23869;DHT22;12115;47.128;15.422;2023-04-25T06:46:10;8.40;99.90
23869;DHT22;12115;47.128;15.422;2023-04-25T06:48:43;8.50;99.90
23869;DHT22;12115;47.128;15.422;2023-04-25T06:51:10;8.60;99.90
23869;DHT22;12115;47.128;15.422;2023-04-25T06:53:38;8.80;99.90
23869;DHT22;12115;47.128;15.422;2023-04-25T06:56:09;8.90;99.90
23869;DHT22;12115;47.128;15.422;2023-04-25T06:58:54;9.10;99.90
23869;DHT22;12115;47.128;15.422;2023-04-25T07:01:29;9.10;99.90
23869;DHT22;12115;47.128;15.422;2023-04-25T07:03:59;9.10;99.90
23869;DHT22;12115;47.128;15.422;2023-04-25T07:06:28;9.30;99.90
23869;DHT22;12115;47.128;15.422;2023-04-25T07:08:55;9.30;99.90
23869;DHT22;12115;47.128;15.422;2023-04-25T07:11:23;9.50;99.90
23869;DHT22;12115;47.128;15.422;2023-04-25T07:13:50;9.60;99.90
23869;DHT22;12115;47.128;15.422;2023-04-25T07:16:17;9.60;99.90
23869;DHT22;12115;47.128;15.422;2023-04-25T07:18:46;9.70;99.90
23869;DHT22;12115;47.128;15.422;2023-04-25T07:21:13;9.80;99.90
23869;DHT22;12115;47.128;15.422;2023-04-25T07:23:41;9.90;99.90
23869;DHT22;12115;47.128;15.422;2023-04-25T07:26:13;10.00;99.90
23869;DHT22;12115;47.128;15.422;2023-04-25T07:29:00;10.00;99.90
23869;DHT22;12115;47.128;15.422;2023-04-25T07:31:27;10.10;99.90
23869;DHT22;12115;47.128;15.422;2023-04-25T07:33:54;10.30;99.90
23869;DHT22;12115;47.128;15.422;2023-04-25T07:36:21;10.40;99.90
23869;DHT22;12115;47.128;15.422;2023-04-25T07:38:49;10.40;99.90
23869;DHT22;12115;47.128;15.422;2023-04-25T07:41:17;10.40;99.90
23869;DHT22;12115;47.128;15.422;2023-04-25T07:43:44;10.60;99.90
23869;DHT22;12115;47.128;15.422;2023-04-25T07:46:11;10.80;99.90
23869;DHT22;12115;47.128;15.422;2023-04-25T07:48:39;10.90;99.90
23869;DHT22;12115;47.128;15.422;2023-04-25T07:51:06;11.00;99.90
23869;DHT22;12115;47.128;15.422;2023-04-25T07:53:35;11.10;99.90
23869;DHT22;12115;47.128;15.422;2023-04-25T07:56:09;11.30;99.90
23869;DHT22;12115;47.128;15.422;2023-04-25T07:58:38;11.50;99.90
23869;DHT22;12115;47.128;15.422;2023-04-25T08:01:09;11.60;99.90
23869;DHT22;12115;47.128;15.422;2023-04-25T08:03:38;11.60;99.90
23869;DHT22;12115;47.128;15.422;2023-04-25T08:06:13;11.70;99.90
23869;DHT22;12115;47.128;15.422;2023-04-25T08:08:49;11.70;99.90
23869;DHT22;12115;47.128;15.422;2023-04-25T08:11:19;12.00;99.90
23869;DHT22;12115;47.128;15.422;2023-04-25T08:13:46;12.10;99.90
23869;DHT22;12115;47.128;15.422;2023-04-25T08:16:13;12.30;99.90
23869;DHT22;12115;47.128;15.422;2023-04-25T08:18:40;12.40;99.90
23869;DHT22;12115;47.128;15.422;2023-04-25T08:21:08;12.40;99.90
23869;DHT22;12115;47.128;15.422;2023-04-25T08:23:38;12.40;99.90
23869;DHT22;12115;47.128;15.422;2023-04-25T08:26:12;12.50;99.90
23869;DHT22;12115;47.128;15.422;2023-04-25T08:28:41;12.70;99.90
23869;DHT22;12115;47.128;15.422;2023-04-25T08:31:08;12.90;99.90
23869;DHT22;12115;47.128;15.422;2023-04-25T08:33:45;13.10;99.90
23869;DHT22;12115;47.128;15.422;2023-04-25T08:36:38;13.20;99.90
23869;DHT22;12115;47.128;15.422;2023-04-25T08:39:19;13.30;99.90
23869;DHT22;12115;47.128;15.422;2023-04-25T08:42:12;13.40;99.90
23869;DHT22;12115;47.128;15.422;2023-04-25T08:44:39;13.40;99.90
23869;DHT22;12115;47.128;15.422;2023-04-25T08:47:06;13.50;99.90
23869;DHT22;12115;47.128;15.422;2023-04-25T08:49:45;13.40;99.90
23869;DHT22;12115;47.128;15.422;2023-04-25T08:52:13;13.40;99.90
23869;DHT22;12115;47.128;15.422;2023-04-25T08:54:43;13.40;99.90
23869;DHT22;12115;47.128;15.422;2023-04-25T08:57:17;13.40;99.90
23869;DHT22;12115;47.128;15.422;2023-04-25T08:59:46;13.50;99.90
23869;DHT22;12115;47.128;15.422;2023-04-25T09:02:15;13.50;99.90
23869;DHT22;12115;47.128;15.422;2023-04-25T09:04:46;13.50;99.90
23869;DHT22;12115;47.128;15.422;2023-04-25T09:07:13;13.60;99.90
23869;DHT22;12115;47.128;15.422;2023-04-25T09:09:45;13.60;99.90
23869;DHT22;12115;47.128;15.422;2023-04-25T09:12:18;13.70;99.90
23869;DHT22;12115;47.128;15.422;2023-04-25T09:17:42;13.70;99.90
23869;DHT22;12115;47.128;15.422;2023-04-25T09:20:13;13.70;99.90
23869;DHT22;12115;47.128;15.422;2023-04-25T09:22:40;13.80;99.90
23869;DHT22;12115;47.128;15.422;2023-04-25T09:25:09;13.80;99.90
23869;DHT22;12115;47.128;15.422;2023-04-25T09:27:54;13.80;99.90
23869;DHT22;12115;47.128;15.422;2023-04-25T09:30:34;13.90;99.90
23869;DHT22;12115;47.128;15.422;2023-04-25T09:33:08;13.90;99.90
23869;DHT22;12115;47.128;15.422;2023-04-25T09:35:41;14.00;99.90
23869;DHT22;12115;47.128;15.422;2023-04-25T09:38:15;13.90;99.90
23869;DHT22;12115;47.128;15.422;2023-04-25T09:40:51;13.90;99.90
23869;DHT22;12115;47.128;15.422;2023-04-25T09:43:45;14.00;99.90
23869;DHT22;12115;47.128;15.422;2023-04-25T09:46:14;14.00;99.90
23869;DHT22;12115;47.128;15.422;2023-04-25T09:48:50;14.10;97.80
23869;DHT22;12115;47.128;15.422;2023-04-25T09:51:25;14.10;99.30
23869;DHT22;12115;47.128;15.422;2023-04-25T09:53:54;14.20;99.90
23869;DHT22;12115;47.128;15.422;2023-04-25T09:56:35;14.40;98.90
23869;DHT22;12115;47.128;15.422;2023-04-25T09:59:05;14.60;99.50
23869;DHT22;12115;47.128;15.422;2023-04-25T10:01:36;14.70;98.50
23869;DHT22;12115;47.128;15.422;2023-04-25T10:04:12;14.80;99.10
23869;DHT22;12115;47.128;15.422;2023-04-25T10:06:56;14.80;96.90
23869;DHT22;12115;47.128;15.422;2023-04-25T10:09:26;14.90;98.20
23869;DHT22;12115;47.128;15.422;2023-04-25T10:11:54;15.00;98.60
23869;DHT22;12115;47.128;15.422;2023-04-25T10:14:23;15.10;98.30
23869;DHT22;12115;47.128;15.422;2023-04-25T10:16:51;15.20;95.00
23869;DHT22;12115;47.128;15.422;2023-04-25T10:19:20;15.30;96.00
23869;DHT22;12115;47.128;15.422;2023-04-25T10:24:25;15.50;95.30
23869;DHT22;12115;47.128;15.422;2023-04-25T10:26:53;15.60;94.30
23869;DHT22;12115;47.128;15.422;2023-04-25T10:29:27;15.60;93.50
23869;DHT22;12115;47.128;15.422;2023-04-25T10:31:54;15.50;90.50
23869;DHT22;12115;47.128;15.422;2023-04-25T10:34:41;15.40;89.50
23869;DHT22;12115;47.128;15.422;2023-04-25T10:37:09;15.30;91.00
23869;DHT22;12115;47.128;15.422;2023-04-25T10:39:39;15.40;93.30
23869;DHT22;12115;47.128;15.422;2023-04-25T10:42:07;15.50;93.40
23869;DHT22;12115;47.128;15.422;2023-04-25T10:44:37;15.70;92.80
23869;DHT22;12115;47.128;15.422;2023-04-25T10:47:06;15.70;91.70
23869;DHT22;12115;47.128;15.422;2023-04-25T10:49:41;15.80;91.80
23869;DHT22;12115;47.128;15.422;2023-04-25T10:52:16;15.90;93.00
23869;DHT22;12115;47.128;15.422;2023-04-25T10:54:49;16.00;92.20
23869;DHT22;12115;47.128;15.422;2023-04-25T10:57:38;16.20;91.90
23869;DHT22;12115;47.128;15.422;2023-04-25T11:00:19;16.10;90.80
23869;DHT22;12115;47.128;15.422;2023-04-25T11:02:59;16.00;90.20
23869;DHT22;12115;47.128;15.422;2023-04-25T11:05:33;16.00;91.90
23869;DHT22;12115;47.128;15.422;2023-04-25T11:08:13;16.10;90.90
23869;DHT22;12115;47.128;15.422;2023-04-25T11:10:44;16.10;90.80
23869;DHT22;12115;47.128;15.422;2023-04-25T11:13:11;16.00;91.20
23869;DHT22;12115;47.128;15.422;2023-04-25T11:15:38;15.90;90.10
23869;DHT22;12115;47.128;15.422;2023-04-25T11:18:05;15.70;88.90
23869;DHT22;12115;47.128;15.422;2023-04-25T11:20:35;15.50;87.80
23869;DHT22;12115;47.128;15.422;2023-04-25T11:23:02;15.30;91.70
23869;DHT22;12115;47.128;15.422;2023-04-25T11:25:34;15.40;92.40
23869;DHT22;12115;47.128;15.422;2023-04-25T11:28:04;15.50;92.80
23869;DHT22;12115;47.128;15.422;2023-04-25T11:30:31;15.50;90.70
23869;DHT22;12115;47.128;15.422;2023-04-25T11:32:58;15.50;92.00
23869;DHT22;12115;47.128;15.422;2023-04-25T11:35:25;15.50;92.80
23869;DHT22;12115;47.128;15.422;2023-04-25T11:37:52;15.70;93.60
23869;DHT22;12115;47.128;15.422;2023-04-25T11:40:20;15.70;93.40
23869;DHT22;12115;47.128;15.422;2023-04-25T11:42:47;15.80;92.90
23869;DHT22;12115;47.128;15.422;2023-04-25T11:45:14;15.70;92.60
23869;DHT22;12115;47.128;15.422;2023-04-25T11:47:42;15.70;92.60
23869;DHT22;12115;47.128;15.422;2023-04-25T11:50:09;15.70;91.90
23869;DHT22;12115;47.128;15.422;2023-04-25T11:52:40;15.60;91.70
23869;DHT22;12115;47.128;15.422;2023-04-25T11:55:10;15.50;90.00
23869;DHT22;12115;47.128;15.422;2023-04-25T11:57:42;15.40;91.30
23869;DHT22;12115;47.128;15.422;2023-04-25T12:02:47;15.40;89.60
23869;DHT22;12115;47.128;15.422;2023-04-25T12:05:15;15.30;90.00
23869;DHT22;12115;47.128;15.422;2023-04-25T12:08:12;15.40;91.20
23869;DHT22;12115;47.128;15.422;2023-04-25T12:10:42;15.60;92.40
23869;DHT22;12115;47.128;15.422;2023-04-25T12:13:25;15.70;91.70
23869;DHT22;12115;47.128;15.422;2023-04-25T12:15:54;15.80;91.60
23869;DHT22;12115;47.128;15.422;2023-04-25T12:18:25;15.90;90.20
23869;DHT22;12115;47.128;15.422;2023-04-25T12:20:54;15.90;88.50
23869;DHT22;12115;47.128;15.422;2023-04-25T12:23:26;15.90;87.70
23869;DHT22;12115;47.128;15.422;2023-04-25T12:25:54;15.90;89.00
23869;DHT22;12115;47.128;15.422;2023-04-25T12:28:23;16.00;90.00
23869;DHT22;12115;47.128;15.422;2023-04-25T12:30:57;15.90;86.30
23869;DHT22;12115;47.128;15.422;2023-04-25T12:33:26;15.90;88.60
23869;DHT22;12115;47.128;15.422;2023-04-25T12:35:54;16.00;86.90
23869;DHT22;12115;47.128;15.422;2023-04-25T12:38:29;16.10;88.20
23869;DHT22;12115;47.128;15.422;2023-04-25T12:40:58;16.10;87.70
23869;DHT22;12115;47.128;15.422;2023-04-25T12:43:25;16.10;87.20
23869;DHT22;12115;47.128;15.422;2023-04-25T12:45:54;16.10;86.90
23869;DHT22;12115;47.128;15.422;2023-04-25T12:48:22;16.10;88.10
23869;DHT22;12115;47.128;15.422;2023-04-25T12:50:50;16.20;86.40
23869;DHT22;12115;47.128;15.422;2023-04-25T12:53:19;16.20;85.80
23869;DHT22;12115;47.128;15.422;2023-04-25T12:55:47;16.30;87.20
23869;DHT22;12115;47.128;15.422;2023-04-25T12:58:18;16.40;85.70
23869;DHT22;12115;47.128;15.422;2023-04-25T13:00:46;16.40;85.40
23869;DHT22;12115;47.128;15.422;2023-04-25T13:03:13;16.40;85.50
23869;DHT22;12115;47.128;15.422;2023-04-25T13:05:40;16.40;85.70
23869;DHT22;12115;47.128;15.422;2023-04-25T13:08:07;16.40;84.70
23869;DHT22;12115;47.128;15.422;2023-04-25T13:10:35;16.40;85.80
23869;DHT22;12115;47.128;15.422;2023-04-25T13:13:02;16.30;81.70
23869;DHT22;12115;47.128;15.422;2023-04-25T13:15:29;16.30;86.20
23869;DHT22;12115;47.128;15.422;2023-04-25T13:17:56;16.30;84.00
23869;DHT22;12115;47.128;15.422;2023-04-25T13:20:23;16.30;84.80
23869;DHT22;12115;47.128;15.422;2023-04-25T13:22:50;16.40;86.40
23869;DHT22;12115;47.128;15.422;2023-04-25T13:25:17;16.40;85.40
23869;DHT22;12115;47.128;15.422;2023-04-25T13:27:45;16.40;83.50
23869;DHT22;12115;47.128;15.422;2023-04-25T13:30:13;16.50;85.50
23869;DHT22;12115;47.128;15.422;2023-04-25T13:32:40;16.50;86.40
23869;DHT22;12115;47.128;15.422;2023-04-25T13:35:10;16.60;84.50
23869;DHT22;12115;47.128;15.422;2023-04-25T13:37:38;16.60;84.60
23869;DHT22;12115;47.128;15.422;2023-04-25T13:40:10;16.60;86.00
23869;DHT22;12115;47.128;15.422;2023-04-25T13:42:38;16.60;82.50
23869;DHT22;12115;47.128;15.422;2023-04-25T13:45:06;16.60;83.00
23869;DHT22;12115;47.128;15.422;2023-04-25T13:47:33;16.60;85.50
23869;DHT22;12115;47.128;15.422;2023-04-25T13:50:00;16.60;81.60
23869;DHT22;12115;47.128;15.422;2023-04-25T13:52:29;16.50;79.20
23869;DHT22;12115;47.128;15.422;2023-04-25T13:54:57;16.40;79.20
23869;DHT22;12115;47.128;15.422;2023-04-25T13:57:24;16.20;78.00
23869;DHT22;12115;47.128;15.422;2023-04-25T13:59:52;16.10;78.10
23869;DHT22;12115;47.128;15.422;2023-04-25T14:02:19;16.10;76.80
23869;DHT22;12115;47.128;15.422;2023-04-25T14:04:46;16.20;80.30
23869;DHT22;12115;47.128;15.422;2023-04-25T14:07:14;16.20;81.00
23869;DHT22;12115;47.128;15.422;2023-04-25T14:09:44;16.20;78.50
23869;DHT22;12115;47.128;15.422;2023-04-25T14:12:11;16.10;79.30
23869;DHT22;12115;47.128;15.422;2023-04-25T14:14:38;16.20;80.60
23869;DHT22;12115;47.128;15.422;2023-04-25T14:17:05;16.20;76.90
23869;DHT22;12115;47.128;15.422;2023-04-25T14:19:33;16.20;79.60
23869;DHT22;12115;47.128;15.422;2023-04-25T14:22:00;16.30;77.40
23869;DHT22;12115;47.128;15.422;2023-04-25T14:24:27;16.30;77.50
23869;DHT22;12115;47.128;15.422;2023-04-25T14:26:54;16.30;78.80
23869;DHT22;12115;47.128;15.422;2023-04-25T14:29:21;16.30;79.30
23869;DHT22;12115;47.128;15.422;2023-04-25T14:31:48;16.10;80.60
23869;DHT22;12115;47.128;15.422;2023-04-25T14:34:15;16.10;80.90
23869;DHT22;12115;47.128;15.422;2023-04-25T14:36:42;16.00;81.00
23869;DHT22;12115;47.128;15.422;2023-04-25T14:39:09;16.00;82.70
23869;DHT22;12115;47.128;15.422;2023-04-25T14:41:36;15.90;83.60
23869;DHT22;12115;47.128;15.422;2023-04-25T14:44:04;15.90;83.40
23869;DHT22;12115;47.128;15.422;2023-04-25T14:46:31;15.80;84.20
23869;DHT22;12115;47.128;15.422;2023-04-25T14:48:58;15.90;84.00
23869;DHT22;12115;47.128;15.422;2023-04-25T14:51:25;15.90;84.30
23869;DHT22;12115;47.128;15.422;2023-04-25T14:53:53;15.90;82.80
23869;DHT22;12115;47.128;15.422;2023-04-25T14:56:20;16.00;84.60
23869;DHT22;12115;47.128;15.422;2023-04-25T14:58:47;16.00;84.50
23869;DHT22;12115;47.128;15.422;2023-04-25T15:01:15;16.00;82.60
23869;DHT22;12115;47.128;15.422;2023-04-25T15:03:42;16.00;85.50
23869;DHT22;12115;47.128;15.422;2023-04-25T15:06:10;16.10;85.50
23869;DHT22;12115;47.128;15.422;2023-04-25T15:08:38;16.20;84.60
23869;DHT22;12115;47.128;15.422;2023-04-25T15:11:05;16.20;85.90
23869;DHT22;12115;47.128;15.422;2023-04-25T15:13:35;16.20;84.20
23869;DHT22;12115;47.128;15.422;2023-04-25T15:16:03;16.20;84.20
23869;DHT22;12115;47.128;15.422;2023-04-25T15:18:30;16.10;84.30
23869;DHT22;12115;47.128;15.422;2023-04-25T15:20:58;16.10;80.10
23869;DHT22;12115;47.128;15.422;2023-04-25T15:23:25;16.10;82.90
23869;DHT22;12115;47.128;15.422;2023-04-25T15:25:55;16.20;79.60
23869;DHT22;12115;47.128;15.422;2023-04-25T15:28:23;16.10;79.80
23869;DHT22;12115;47.128;15.422;2023-04-25T15:30:50;16.10;78.00
23869;DHT22;12115;47.128;15.422;2023-04-25T15:33:20;16.10;79.00
23869;DHT22;12115;47.128;15.422;2023-04-25T15:35:48;16.20;79.20
23869;DHT22;12115;47.128;15.422;2023-04-25T15:38:15;16.10;76.90
23869;DHT22;12115;47.128;15.422;2023-04-25T15:41:08;16.00;78.40
23869;DHT22;12115;47.128;15.422;2023-04-25T15:43:35;16.00;79.90
23869;DHT22;12115;47.128;15.422;2023-04-25T15:46:30;16.10;79.70
23869;DHT22;12115;47.128;15.422;2023-04-25T15:48:57;16.10;79.70
23869;DHT22;12115;47.128;15.422;2023-04-25T15:51:24;16.10;79.30
23869;DHT22;12115;47.128;15.422;2023-04-25T15:54:18;16.10;80.00
23869;DHT22;12115;47.128;15.422;2023-04-25T15:56:51;16.10;79.40
23869;DHT22;12115;47.128;15.422;2023-04-25T15:59:19;16.10;78.50
23869;DHT22;12115;47.128;15.422;2023-04-25T16:01:47;16.10;78.40